createdAt,value
2022-12-04T00:00:15.969Z,17.60
2022-12-04T00:02:44.382Z,15.93
2022-12-04T00:05:14.643Z,15.70
2022-12-04T00:07:45.429Z,14.80
2022-12-04T00:10:13.799Z,16.00
2022-12-04T00:12:44.120Z,19.63
2022-12-04T00:15:28.524Z,16.97
2022-12-04T00:17:56.862Z,14.53
2022-12-04T00:20:25.630Z,16.43
2022-12-04T00:22:54.373Z,14.13
2022-12-04T00:25:22.956Z,14.87
2022-12-04T00:27:55.335Z,14.37
2022-12-04T00:30:25.353Z,17.50
2022-12-04T00:32:54.049Z,15.23
2022-12-04T00:35:22.355Z,14.90
2022-12-04T00:37:50.774Z,15.80
2022-12-04T00:40:20.913Z,14.90
2022-12-04T00:42:54.662Z,13.97
2022-12-04T00:45:24.898Z,16.43
2022-12-04T00:47:53.385Z,14.43
2022-12-04T00:50:22.622Z,18.70
2022-12-04T00:52:51.155Z,13.73
2022-12-04T00:55:22.286Z,15.53
2022-12-04T00:57:55.782Z,14.27
2022-12-04T01:00:29.280Z,15.87
2022-12-04T01:02:57.915Z,15.30
2022-12-04T01:05:26.364Z,15.40
2022-12-04T01:07:56.983Z,19.20
2022-12-04T01:10:25.612Z,16.30
2022-12-04T01:12:59.788Z,15.87
2022-12-04T01:15:29.934Z,16.57
2022-12-04T01:17:58.491Z,16.63
2022-12-04T01:20:27.338Z,17.20
2022-12-04T01:22:57.657Z,16.07
2022-12-04T01:25:26.966Z,15.03
2022-12-04T01:27:57.178Z,15.40
2022-12-04T01:30:25.561Z,16.40
2022-12-04T01:32:55.778Z,17.53
2022-12-04T01:35:25.201Z,14.70
2022-12-04T01:37:58.884Z,14.00
2022-12-04T01:40:27.202Z,18.47
2022-12-04T01:42:56.809Z,18.40
2022-12-04T01:45:44.111Z,13.00
2022-12-04T01:48:21.295Z,14.33
2022-12-04T01:50:53.461Z,13.63
2022-12-04T01:53:25.317Z,14.10
2022-12-04T01:55:54.169Z,11.80
2022-12-04T01:58:27.745Z,15.57
2022-12-04T02:01:03.723Z,13.73
2022-12-04T02:03:39.082Z,15.03
2022-12-04T02:06:08.129Z,15.43
2022-12-04T02:08:40.198Z,12.30
2022-12-04T02:11:19.253Z,14.27
2022-12-04T02:13:59.838Z,13.83
2022-12-04T02:16:40.538Z,12.07
2022-12-04T02:19:43.173Z,9.40
2022-12-04T02:22:20.308Z,13.10
2022-12-04T02:24:58.357Z,11.33
2022-12-04T02:27:47.774Z,12.70
2022-12-04T02:30:17.358Z,11.70
2022-12-04T02:32:50.682Z,11.63
2022-12-04T02:35:27.421Z,10.60
2022-12-04T02:38:04.507Z,9.27
2022-12-04T02:40:40.451Z,9.90
2022-12-04T02:43:16.402Z,10.87
2022-12-04T02:45:52.784Z,11.00
2022-12-04T02:48:22.737Z,12.30
2022-12-04T02:50:55.218Z,8.77
2022-12-04T02:53:29.247Z,11.97
2022-12-04T02:56:03.790Z,12.40
2022-12-04T02:58:39.792Z,10.83
2022-12-04T03:01:20.784Z,10.93
2022-12-04T03:03:54.619Z,12.17
2022-12-04T03:06:26.679Z,8.70
2022-12-04T03:08:58.601Z,10.10
2022-12-04T03:11:30.319Z,9.90
2022-12-04T03:14:07.180Z,9.80
2022-12-04T03:16:40.307Z,9.50
2022-12-04T03:19:14.421Z,9.83
2022-12-04T03:21:47.941Z,9.43
2022-12-04T03:24:22.527Z,13.13
2022-12-04T03:26:57.265Z,12.80
2022-12-04T03:29:33.095Z,10.23
2022-12-04T03:32:09.900Z,13.00
2022-12-04T03:34:52.092Z,9.63
2022-12-04T03:37:28.349Z,11.60
2022-12-04T03:40:02.473Z,11.50
2022-12-04T03:42:37.377Z,9.20
2022-12-04T03:45:12.325Z,11.13
2022-12-04T03:47:44.751Z,10.10
2022-12-04T03:50:19.131Z,9.97
2022-12-04T03:52:59.775Z,11.13
2022-12-04T03:55:32.787Z,10.43
2022-12-04T03:58:08.472Z,10.10
2022-12-04T04:00:44.968Z,10.40
2022-12-04T04:03:20.234Z,10.20
2022-12-04T04:05:51.739Z,10.10
2022-12-04T04:08:34.071Z,9.43
2022-12-04T04:11:08.816Z,14.37
2022-12-04T04:13:58.014Z,10.30
2022-12-04T04:16:48.058Z,14.70
2022-12-04T04:19:38.867Z,10.87
2022-12-04T04:22:28.763Z,9.20
2022-12-04T04:25:04.775Z,12.73
2022-12-04T04:27:33.134Z,11.83
2022-12-04T04:30:03.564Z,14.93
2022-12-04T04:32:36.999Z,14.37
2022-12-04T04:35:16.268Z,9.90
2022-12-04T04:37:56.779Z,11.93
2022-12-04T04:40:35.141Z,11.10
2022-12-04T04:43:10.260Z,12.33
2022-12-04T04:45:45.702Z,11.00
2022-12-04T04:48:18.897Z,9.53
2022-12-04T04:50:48.108Z,9.73
2022-12-04T04:53:19.991Z,12.37
2022-12-04T04:55:49.866Z,11.80
2022-12-04T04:58:20.591Z,9.70
2022-12-04T05:00:58.084Z,14.03
2022-12-04T05:03:28.909Z,13.10
2022-12-04T05:05:57.710Z,12.23
2022-12-04T05:08:26.720Z,13.90
2022-12-04T05:10:58.229Z,12.03
2022-12-04T05:13:29.484Z,16.23
2022-12-04T05:16:00.698Z,12.27
2022-12-04T05:18:31.862Z,12.43
2022-12-04T05:21:05.021Z,13.63
2022-12-04T05:23:33.289Z,13.60
2022-12-04T05:26:02.290Z,17.10
2022-12-04T05:28:31.015Z,13.93
2022-12-04T05:31:05.012Z,11.67
2022-12-04T05:33:34.981Z,9.60
2022-12-04T05:36:06.313Z,13.20
2022-12-04T05:38:38.968Z,11.00
2022-12-04T05:41:10.927Z,12.97
2022-12-04T05:43:42.798Z,12.03
2022-12-04T05:46:11.898Z,12.87
2022-12-04T05:48:41.996Z,10.70
2022-12-04T05:51:11.395Z,11.37
2022-12-04T05:53:40.348Z,12.90
2022-12-04T05:56:09.594Z,14.57
2022-12-04T05:58:38.803Z,11.10
2022-12-04T06:01:13.045Z,11.77
2022-12-04T06:03:43.046Z,12.70
2022-12-04T06:06:21.127Z,9.63
2022-12-04T06:08:53.609Z,12.20
2022-12-04T06:11:25.073Z,14.67
2022-12-04T06:13:56.761Z,13.57
2022-12-04T06:16:30.558Z,13.57
2022-12-04T06:19:02.982Z,11.57
2022-12-04T06:21:33.287Z,12.63
2022-12-04T06:24:01.601Z,10.60
2022-12-04T06:26:30.284Z,14.03
2022-12-04T06:29:00.205Z,11.77
2022-12-04T06:31:30.510Z,14.27
2022-12-04T06:34:00.823Z,12.57
2022-12-04T06:36:30.561Z,14.30
2022-12-04T06:38:59.535Z,9.20
2022-12-04T06:41:29.448Z,15.27
2022-12-04T06:44:00.814Z,12.60
2022-12-04T06:46:32.987Z,14.43
2022-12-04T06:49:07.004Z,12.87
2022-12-04T06:51:43.439Z,10.40
2022-12-04T06:54:13.375Z,13.20
2022-12-04T06:56:44.907Z,15.13
2022-12-04T06:59:13.704Z,11.27
2022-12-04T07:01:43.229Z,11.50
2022-12-04T07:04:16.123Z,14.60
2022-12-04T07:06:45.180Z,11.50
2022-12-04T07:09:20.454Z,12.03
2022-12-04T07:11:49.034Z,15.00
2022-12-04T07:14:18.056Z,11.53
2022-12-04T07:16:47.450Z,11.30
2022-12-04T07:19:17.582Z,13.90
2022-12-04T07:21:48.250Z,14.37
2022-12-04T07:24:18.968Z,16.30
2022-12-04T07:26:48.177Z,11.70
2022-12-04T07:29:19.462Z,16.40
2022-12-04T07:31:50.164Z,10.77
2022-12-04T07:34:20.672Z,14.70
2022-12-04T07:36:50.190Z,13.20
2022-12-04T07:39:18.674Z,12.17
2022-12-04T07:41:48.012Z,15.83
2022-12-04T07:44:17.809Z,12.83
2022-12-04T07:46:46.108Z,12.10
2022-12-04T07:49:15.128Z,13.40
2022-12-04T07:51:47.073Z,13.07
2022-12-04T07:54:16.856Z,11.73
2022-12-04T07:56:45.268Z,13.00
2022-12-04T07:59:13.940Z,10.40
2022-12-04T08:01:42.628Z,12.50
2022-12-04T08:04:12.944Z,11.70
2022-12-04T08:06:41.695Z,10.37
2022-12-04T08:09:11.752Z,11.80
2022-12-04T08:11:40.847Z,12.00
2022-12-04T08:14:10.329Z,14.40
2022-12-04T08:16:38.838Z,15.83
2022-12-04T08:19:07.228Z,12.70
2022-12-04T08:21:36.009Z,11.07
2022-12-04T08:24:04.902Z,12.20
2022-12-04T08:26:36.456Z,15.90
2022-12-04T08:29:07.285Z,11.20
2022-12-04T08:31:39.247Z,20.60
2022-12-04T08:34:09.435Z,18.10
2022-12-04T08:36:38.066Z,13.37
2022-12-04T08:39:06.902Z,12.77
2022-12-04T08:41:37.014Z,13.07
2022-12-04T08:44:07.171Z,10.53
2022-12-04T08:46:35.663Z,10.60
2022-12-04T08:49:05.647Z,11.27
2022-12-04T08:51:36.272Z,13.77
2022-12-04T08:54:07.950Z,12.50
2022-12-04T08:56:38.871Z,11.17
2022-12-04T08:59:09.619Z,11.90
2022-12-04T09:01:38.414Z,14.40
2022-12-04T09:04:07.157Z,12.10
2022-12-04T09:06:35.457Z,11.63
2022-12-04T09:09:05.474Z,15.40
2022-12-04T09:11:35.638Z,12.33
2022-12-04T09:14:05.590Z,16.50
2022-12-04T09:16:34.702Z,13.40
2022-12-04T09:19:04.606Z,11.50
2022-12-04T09:21:33.351Z,12.93
2022-12-04T09:24:03.850Z,13.03
2022-12-04T09:26:34.683Z,11.93
2022-12-04T09:29:05.964Z,14.00
2022-12-04T09:31:35.648Z,12.50
2022-12-04T09:34:04.521Z,10.23
2022-12-04T09:36:33.721Z,12.40
2022-12-04T09:39:04.395Z,11.00
2022-12-04T09:42:09.906Z,13.43
2022-12-04T09:44:45.207Z,10.13
2022-12-04T09:47:22.518Z,12.57
2022-12-04T09:49:56.242Z,10.23
2022-12-04T09:52:36.842Z,14.50
2022-12-04T09:55:08.368Z,12.80
2022-12-04T09:57:41.992Z,13.13
2022-12-04T10:00:18.304Z,10.00
2022-12-04T10:02:52.579Z,10.37
2022-12-04T10:05:28.025Z,11.70
2022-12-04T10:08:05.034Z,11.57
2022-12-04T10:10:40.171Z,12.33
2022-12-04T10:13:28.375Z,11.27
2022-12-04T10:16:10.495Z,13.33
2022-12-04T10:18:49.514Z,14.97
2022-12-04T10:21:31.905Z,12.83
2022-12-04T10:24:18.796Z,9.37
2022-12-04T10:26:49.500Z,12.53
2022-12-04T10:29:24.059Z,10.50
2022-12-04T10:32:06.603Z,14.30
2022-12-04T10:34:35.739Z,10.93
2022-12-04T10:37:15.966Z,9.60
2022-12-04T10:39:53.098Z,12.23
2022-12-04T10:42:29.892Z,12.03
2022-12-04T10:45:01.040Z,11.50
2022-12-04T10:47:34.393Z,9.03
2022-12-04T10:50:06.835Z,11.33
2022-12-04T10:52:35.324Z,9.37
2022-12-04T10:55:04.829Z,10.43
2022-12-04T10:57:38.798Z,9.50
2022-12-04T11:00:26.235Z,8.43
2022-12-04T11:03:01.090Z,11.90
2022-12-04T11:05:33.463Z,9.07
2022-12-04T11:08:04.630Z,17.37
2022-12-04T11:10:37.966Z,21.33
2022-12-04T11:13:15.703Z,16.07
2022-12-04T11:15:46.046Z,22.83
2022-12-04T11:18:20.638Z,18.13
2022-12-04T11:20:54.864Z,11.90
2022-12-04T11:23:24.162Z,15.53
2022-12-04T11:30:31.130Z,11.90
2022-12-04T11:33:00.016Z,10.43
2022-12-04T11:35:33.850Z,9.23
2022-12-04T11:38:08.832Z,9.87
2022-12-04T11:40:39.273Z,7.07
2022-12-04T11:43:15.393Z,8.67
2022-12-04T11:45:56.452Z,10.80
2022-12-04T11:48:27.450Z,8.50
2022-12-04T11:51:03.574Z,8.20
2022-12-04T11:53:43.327Z,9.60
2022-12-04T11:56:22.087Z,6.93
2022-12-04T11:59:06.984Z,8.60
2022-12-04T12:01:46.234Z,9.60
2022-12-04T12:04:41.137Z,8.53
2022-12-04T12:07:27.251Z,11.43
2022-12-04T12:10:03.473Z,9.63
2022-12-04T12:12:50.796Z,12.20
2022-12-04T12:15:33.235Z,10.40
2022-12-04T12:18:21.013Z,11.87
2022-12-04T12:21:03.836Z,11.50
2022-12-04T12:23:58.620Z,8.57
2022-12-04T12:26:37.595Z,11.50
2022-12-04T12:29:24.564Z,9.20
2022-12-04T12:32:18.716Z,9.20
2022-12-04T12:34:48.696Z,12.10
2022-12-04T12:37:41.846Z,10.27
2022-12-04T12:40:23.516Z,7.93
2022-12-04T12:42:58.379Z,11.73
2022-12-04T12:45:33.834Z,8.60
2022-12-04T12:48:14.142Z,10.30
2022-12-04T12:50:54.752Z,10.00
2022-12-04T12:53:38.571Z,14.43
2022-12-04T12:56:13.375Z,52.40
2022-12-04T12:58:47.421Z,44.07
2022-12-04T13:01:24.074Z,13.87
2022-12-04T13:04:01.794Z,14.73
2022-12-04T13:06:36.031Z,12.40
2022-12-04T13:09:12.569Z,10.93
2022-12-04T13:11:45.000Z,9.23
2022-12-04T13:14:15.775Z,10.30
2022-12-04T13:16:48.188Z,12.20
2022-12-04T13:19:22.542Z,9.57
2022-12-04T13:21:57.761Z,9.30
2022-12-04T13:25:01.304Z,10.43
2022-12-04T13:27:53.085Z,10.80
2022-12-04T13:30:24.906Z,10.37
2022-12-04T13:33:21.441Z,8.83
2022-12-04T13:36:16.686Z,11.33
2022-12-04T13:39:00.333Z,11.37
2022-12-04T13:41:30.349Z,11.20
2022-12-04T13:44:06.910Z,11.20
2022-12-04T13:46:38.013Z,12.13
2022-12-04T13:49:11.723Z,9.33
2022-12-04T13:51:41.807Z,13.23
2022-12-04T13:54:29.448Z,15.50
2022-12-04T13:56:59.737Z,22.10
2022-12-04T13:59:40.941Z,9.57
2022-12-04T14:02:35.590Z,12.43
2022-12-04T14:05:06.382Z,13.00
2022-12-04T14:07:38.482Z,9.83
2022-12-04T14:10:10.553Z,16.63
2022-12-04T14:12:42.180Z,15.93
2022-12-04T14:15:22.543Z,14.23
2022-12-04T14:18:00.975Z,12.20
2022-12-04T14:20:31.981Z,11.73
2022-12-04T14:23:10.816Z,16.67
2022-12-04T14:25:41.851Z,11.80
2022-12-04T14:28:27.263Z,14.43
2022-12-04T14:31:07.899Z,10.90
2022-12-04T14:33:44.506Z,10.13
2022-12-04T14:36:21.585Z,13.27
2022-12-04T14:38:56.359Z,11.30
2022-12-04T14:41:29.181Z,11.50
2022-12-04T14:43:58.562Z,13.17
2022-12-04T14:46:36.572Z,12.40
2022-12-04T14:49:18.671Z,12.13
2022-12-04T14:51:58.968Z,13.17
2022-12-04T14:54:37.488Z,13.33
2022-12-04T14:57:20.993Z,19.80
2022-12-04T14:59:54.713Z,14.10
2022-12-04T15:02:33.603Z,14.77
2022-12-04T15:05:03.692Z,12.00
2022-12-04T15:07:33.581Z,17.20
2022-12-04T15:10:32.646Z,15.13
2022-12-04T15:13:01.139Z,15.33
2022-12-04T15:15:31.040Z,14.90
2022-12-04T15:18:12.861Z,18.17
2022-12-04T15:20:46.275Z,16.00
2022-12-04T15:23:17.091Z,13.43
2022-12-04T15:25:48.266Z,17.70
2022-12-04T15:28:21.105Z,13.93
2022-12-04T15:30:51.574Z,12.20
2022-12-04T15:33:24.584Z,17.03
2022-12-04T15:35:56.317Z,16.27
2022-12-04T15:38:25.213Z,15.90
2022-12-04T15:40:56.121Z,10.67
2022-12-04T15:43:29.763Z,15.37
2022-12-04T15:45:59.989Z,12.77
2022-12-04T15:48:32.031Z,16.00
2022-12-04T15:51:04.249Z,14.80
2022-12-04T15:53:36.748Z,13.40
2022-12-04T15:56:08.107Z,16.50
2022-12-04T15:58:42.195Z,15.43
2022-12-04T16:01:12.555Z,13.87
2022-12-04T16:03:53.852Z,12.90
2022-12-04T16:06:25.644Z,16.33
2022-12-04T16:08:56.767Z,13.23
2022-12-04T16:11:31.725Z,15.37
2022-12-04T16:14:18.879Z,19.40
2022-12-04T16:16:50.519Z,19.07
2022-12-04T16:19:29.305Z,31.40
2022-12-04T16:22:00.028Z,39.17
2022-12-04T16:24:28.612Z,37.20
2022-12-04T16:27:00.021Z,36.63
2022-12-04T16:29:30.480Z,35.80
2022-12-04T16:32:03.013Z,29.57
2022-12-04T16:34:33.910Z,41.47
2022-12-04T16:37:02.810Z,31.83
2022-12-04T16:39:38.252Z,36.47
2022-12-04T16:42:17.485Z,32.87
2022-12-04T16:44:46.788Z,34.87
2022-12-04T16:47:18.598Z,15.50
2022-12-04T16:49:51.238Z,18.50
2022-12-04T16:52:20.673Z,16.60
2022-12-04T16:54:49.394Z,16.90
2022-12-04T16:57:18.173Z,17.80
2022-12-04T16:59:46.365Z,15.30
2022-12-04T17:02:18.906Z,23.00
2022-12-04T17:04:52.811Z,15.87
2022-12-04T17:07:26.250Z,17.10
2022-12-04T17:09:54.590Z,19.23
2022-12-04T17:12:23.257Z,15.73
2022-12-04T17:14:52.137Z,14.90
2022-12-04T17:17:21.279Z,23.70
2022-12-04T17:19:54.214Z,20.17
2022-12-04T17:22:26.558Z,20.60
2022-12-04T17:24:56.706Z,15.20
2022-12-04T17:27:25.424Z,13.67
2022-12-04T17:29:53.774Z,15.70
2022-12-04T17:32:22.477Z,14.70
2022-12-04T17:34:54.017Z,17.37
2022-12-04T17:37:23.224Z,21.50
2022-12-04T17:39:52.050Z,21.03
2022-12-04T17:42:21.165Z,19.30
2022-12-04T17:44:52.294Z,20.73
2022-12-04T17:47:20.912Z,21.13
2022-12-04T17:49:49.288Z,17.50
2022-12-04T17:52:22.653Z,17.53
2022-12-04T17:54:53.290Z,19.03
2022-12-04T17:57:22.378Z,17.50
2022-12-04T17:59:54.081Z,17.60
2022-12-04T18:02:22.872Z,17.77
2022-12-04T18:04:54.170Z,20.27
2022-12-04T18:07:27.955Z,15.67
2022-12-04T18:09:57.830Z,15.13
2022-12-04T18:12:28.004Z,16.17
2022-12-04T18:14:56.569Z,18.57
2022-12-04T18:17:26.366Z,14.40
2022-12-04T18:19:57.712Z,15.77
2022-12-04T18:22:30.015Z,13.83
2022-12-04T18:24:58.630Z,14.97
2022-12-04T18:27:27.088Z,20.30
2022-12-04T18:29:55.941Z,15.80
2022-12-04T18:32:26.910Z,14.17
2022-12-04T18:34:55.328Z,12.80
2022-12-04T18:37:25.033Z,13.73
2022-12-04T18:39:55.535Z,13.70
2022-12-04T18:42:24.229Z,10.47
2022-12-04T18:44:53.657Z,12.73
2022-12-04T18:47:22.959Z,11.13
2022-12-04T18:49:51.495Z,12.07
2022-12-04T18:52:20.076Z,11.90
2022-12-04T18:54:48.478Z,12.43
2022-12-04T18:57:18.315Z,12.30
2022-12-04T18:59:47.591Z,11.60
2022-12-04T19:02:16.756Z,9.80
2022-12-04T19:04:46.750Z,9.73
2022-12-04T19:07:15.405Z,20.30
2022-12-04T19:12:34.628Z,10.20
2022-12-04T19:15:04.281Z,16.63
2022-12-04T19:17:41.748Z,11.33
2022-12-04T19:20:12.241Z,7.87
2022-12-04T19:22:49.074Z,8.73
2022-12-04T19:25:23.039Z,7.47
2022-12-04T19:27:54.227Z,7.90
2022-12-04T19:30:23.780Z,9.13
2022-12-04T19:32:55.059Z,9.40
2022-12-04T19:35:24.362Z,6.93
2022-12-04T19:37:58.155Z,6.10
2022-12-04T19:40:33.817Z,7.03
2022-12-04T19:43:08.741Z,8.20
2022-12-04T19:45:41.757Z,7.77
2022-12-04T19:48:11.870Z,6.73
2022-12-04T19:50:43.515Z,7.10
2022-12-04T19:53:12.259Z,11.60
2022-12-04T19:55:41.801Z,9.30
2022-12-04T19:58:16.977Z,7.20
2022-12-04T20:00:52.160Z,7.73
2022-12-04T20:03:21.885Z,9.77
2022-12-04T20:05:52.815Z,7.00
2022-12-04T20:08:22.503Z,9.87
2022-12-04T20:10:53.683Z,10.97
2022-12-04T20:13:26.249Z,9.37
2022-12-04T20:16:03.303Z,9.90
2022-12-04T20:18:47.581Z,7.73
2022-12-04T20:21:17.192Z,8.07
2022-12-04T20:23:53.313Z,7.67
2022-12-04T20:26:30.327Z,8.93
2022-12-04T20:29:02.719Z,9.53
2022-12-04T20:31:35.481Z,7.90
2022-12-04T20:34:14.855Z,7.93
2022-12-04T20:36:48.885Z,7.37
2022-12-04T20:39:30.123Z,8.80
2022-12-04T20:42:00.781Z,9.00
2022-12-04T20:44:33.137Z,8.07
2022-12-04T20:47:07.447Z,7.30
2022-12-04T20:49:37.365Z,8.13
2022-12-04T20:52:12.691Z,6.90
2022-12-04T20:54:45.933Z,8.73
2022-12-04T20:57:19.013Z,8.60
2022-12-04T20:59:51.226Z,9.77
2022-12-04T21:02:24.612Z,7.87
2022-12-04T21:04:56.786Z,8.33
2022-12-04T21:07:49.546Z,13.20
2022-12-04T21:10:21.847Z,9.73
2022-12-04T21:13:08.476Z,11.87
2022-12-04T21:15:57.842Z,12.17
2022-12-04T21:18:29.669Z,9.67
2022-12-04T21:20:59.254Z,11.00
2022-12-04T21:23:29.783Z,11.00
2022-12-04T21:26:06.511Z,11.93
2022-12-04T21:28:37.244Z,10.60
2022-12-04T21:31:08.931Z,9.77
2022-12-04T21:33:47.970Z,11.43
2022-12-04T21:36:19.937Z,12.37
2022-12-04T21:38:50.360Z,12.13
2022-12-04T21:41:37.548Z,8.20
2022-12-04T21:47:01.207Z,12.03
2022-12-04T21:49:31.189Z,11.20
2022-12-04T21:52:06.784Z,14.17
2022-12-04T21:54:36.648Z,12.13
2022-12-04T21:57:10.919Z,14.13
2022-12-04T21:59:43.363Z,13.93
2022-12-04T22:02:17.117Z,10.40
2022-12-04T22:04:51.729Z,17.63
2022-12-04T22:07:22.115Z,10.90
2022-12-04T22:09:56.294Z,11.90
2022-12-04T22:15:24.777Z,14.10
2022-12-04T22:17:57.635Z,12.50
2022-12-04T22:20:28.686Z,8.40
2022-12-04T22:23:12.237Z,8.67
2022-12-04T22:25:44.256Z,7.90
2022-12-04T22:28:18.048Z,7.23
2022-12-04T22:30:52.057Z,6.60
2022-12-04T22:33:32.090Z,11.43
2022-12-04T22:36:06.657Z,8.70
2022-12-04T22:38:52.506Z,7.47
2022-12-04T22:41:27.919Z,10.87
2022-12-04T22:43:58.699Z,8.10
2022-12-04T22:46:30.921Z,9.67
2022-12-04T22:49:07.129Z,7.87
2022-12-04T22:51:38.513Z,7.93
2022-12-04T22:54:09.457Z,7.60
2022-12-04T22:56:41.633Z,6.60
2022-12-04T22:59:12.700Z,4.83
2022-12-04T23:01:42.399Z,5.50
2022-12-04T23:04:20.236Z,7.87
2022-12-04T23:06:59.791Z,8.03
2022-12-04T23:09:29.413Z,7.50
2022-12-04T23:12:03.555Z,7.30
2022-12-04T23:14:35.840Z,6.10
2022-12-04T23:17:05.844Z,4.80
2022-12-04T23:19:50.089Z,7.07
2022-12-04T23:22:20.045Z,5.90
2022-12-04T23:24:48.617Z,9.13
2022-12-04T23:27:20.630Z,5.90
2022-12-04T23:29:54.494Z,6.00
2022-12-04T23:32:23.910Z,14.43
2022-12-04T23:34:57.433Z,10.47
2022-12-04T23:37:26.799Z,7.20
2022-12-04T23:39:55.276Z,7.13
2022-12-04T23:42:28.646Z,6.17
2022-12-04T23:45:00.422Z,6.37
2022-12-04T23:47:36.646Z,5.70
2022-12-04T23:50:12.187Z,7.03
2022-12-04T23:52:44.555Z,5.50
2022-12-04T23:55:19.775Z,6.43
2022-12-04T23:57:53.041Z,5.07
